createdAt,value
2017-06-16T00:00:08.574Z,20.6
2017-06-16T00:01:07.804Z,20.6
2017-06-16T00:02:07.543Z,20.7
2017-06-16T00:03:06.538Z,20.6
2017-06-16T00:04:05.916Z,20.7
2017-06-16T00:05:05.150Z,20.5
2017-06-16T00:06:04.151Z,20.4
2017-06-16T00:07:03.765Z,20.4
2017-06-16T00:07:35.472Z,20.4
2017-06-16T00:08:05.006Z,20.5
2017-06-16T00:08:35.428Z,20.5
2017-06-16T00:10:01.840Z,20.5
2017-06-16T00:11:00.922Z,20.6
2017-06-16T00:12:00.650Z,20.6
2017-06-16T00:12:59.874Z,20.5
2017-06-16T00:13:59.102Z,20.5
2017-06-16T00:14:58.333Z,20.5
2017-06-16T00:15:57.630Z,20.4
2017-06-16T00:16:57.247Z,20.4
2017-06-16T00:17:56.360Z,20.3
2017-06-16T00:18:55.591Z,20.3
2017-06-16T00:19:55.206Z,20.4
2017-06-16T00:20:54.320Z,20.5
2017-06-16T00:21:53.553Z,20.5
2017-06-16T00:22:53.179Z,20.5
2017-06-16T00:23:52.871Z,20.5
2017-06-16T00:25:50.876Z,20.5
2017-06-16T00:27:49.380Z,20.5
2017-06-16T00:28:49.109Z,20.5
2017-06-16T00:29:48.349Z,20.5
2017-06-16T00:30:48.153Z,20.5
2017-06-16T00:31:48.017Z,20.5
2017-06-16T00:32:46.698Z,20.5
2017-06-16T00:33:45.815Z,20.5
2017-06-16T00:34:45.300Z,20.2
2017-06-16T00:35:44.533Z,20.2
2017-06-16T00:36:43.402Z,20.1
2017-06-16T00:37:42.897Z,20
2017-06-16T00:38:42.512Z,19.9
2017-06-16T00:39:41.746Z,20
2017-06-16T00:40:40.867Z,20.1
2017-06-16T00:41:40.099Z,20
2017-06-16T00:42:39.713Z,20.1
2017-06-16T00:43:38.824Z,20.1
2017-06-16T00:44:37.939Z,20.1
2017-06-16T00:45:37.435Z,20.1
2017-06-16T00:46:36.659Z,20.3
2017-06-16T00:47:36.427Z,20.3
2017-06-16T00:48:35.657Z,20.2
2017-06-16T00:49:34.890Z,20.1
2017-06-16T00:50:34.121Z,20.1
2017-06-16T00:51:33.355Z,20.1
2017-06-16T00:52:32.538Z,20.1
2017-06-16T00:53:32.157Z,20.1
2017-06-16T00:54:31.272Z,20.2
2017-06-16T00:55:30.999Z,20.1
2017-06-16T00:56:30.809Z,20.1
2017-06-16T00:57:30.000Z,20.2
2017-06-16T00:58:28.484Z,20.2
2017-06-16T00:59:28.227Z,20.2
2017-06-16T01:00:27.337Z,20.1
2017-06-16T01:01:26.453Z,20.1
2017-06-16T01:02:26.065Z,20.1
2017-06-16T01:03:25.872Z,20.1
2017-06-16T01:04:24.596Z,20.1
2017-06-16T01:05:23.830Z,20.1
2017-06-16T01:06:23.641Z,20
2017-06-16T01:09:21.146Z,20.1
2017-06-16T01:10:20.877Z,20.1
2017-06-16T01:11:20.110Z,20.1
2017-06-16T01:12:18.987Z,20
2017-06-16T01:13:18.481Z,20
2017-06-16T01:14:18.096Z,20.1
2017-06-16T01:16:16.811Z,20
2017-06-16T01:17:16.083Z,19.9
2017-06-16T01:18:15.189Z,19.8
2017-06-16T01:19:14.428Z,19.8
2017-06-16T01:20:14.160Z,19.8
2017-06-16T01:21:13.388Z,19.8
2017-06-16T01:22:12.613Z,19.7
2017-06-16T01:23:11.841Z,19.5
2017-06-16T01:24:11.075Z,19.6
2017-06-16T01:25:10.696Z,19.6
2017-06-16T01:27:09.201Z,19.6
2017-06-16T01:28:08.435Z,19.6
2017-06-16T01:29:08.057Z,19.6
2017-06-16T01:30:07.167Z,19.7
2017-06-16T01:31:06.440Z,19.8
2017-06-16T01:32:05.942Z,19.8
2017-06-16T01:33:05.177Z,19.8
2017-06-16T01:34:04.407Z,19.9
2017-06-16T01:35:03.410Z,20
2017-06-16T01:36:03.144Z,20
2017-06-16T01:37:02.254Z,19.9
2017-06-16T01:38:02.458Z,19.9
2017-06-16T01:39:01.187Z,19.9
2017-06-16T01:40:00.421Z,19.8
2017-06-16T01:40:59.663Z,19.8
2017-06-16T01:41:58.889Z,19.8
2017-06-16T01:42:58.625Z,19.8
2017-06-16T01:43:57.862Z,19.8
2017-06-16T01:44:57.100Z,19.9
2017-06-16T01:45:56.334Z,19.9
2017-06-16T01:46:55.560Z,19.8
2017-06-16T01:47:55.298Z,19.8
2017-06-16T01:48:54.531Z,19.8
2017-06-16T01:49:53.764Z,19.8
2017-06-16T01:50:52.996Z,19.8
2017-06-16T01:51:52.230Z,19.7
2017-06-16T01:52:51.462Z,19.8
2017-06-16T01:53:51.199Z,19.7
2017-06-16T01:54:50.356Z,19.8
2017-06-16T01:55:49.465Z,19.8
2017-06-16T01:56:49.241Z,19.8
2017-06-16T01:57:48.232Z,19.8
2017-06-16T01:58:47.460Z,19.8
2017-06-16T01:59:47.268Z,19.9
2017-06-16T02:00:46.494Z,19.8
2017-06-16T02:01:45.611Z,19.8
2017-06-16T02:02:44.724Z,19.9
2017-06-16T02:03:44.453Z,19.8
2017-06-16T02:04:43.567Z,19.7
2017-06-16T02:05:42.791Z,19.8
2017-06-16T02:06:42.022Z,19.8
2017-06-16T02:07:41.523Z,19.9
2017-06-16T02:08:40.762Z,19.9
2017-06-16T02:09:40.002Z,19.9
2017-06-16T02:10:38.993Z,19.9
2017-06-16T02:11:38.611Z,19.8
2017-06-16T02:12:38.114Z,19.9
2017-06-16T02:13:37.918Z,19.9
2017-06-16T02:15:36.034Z,19.9
2017-06-16T02:16:35.152Z,19.9
2017-06-16T02:17:34.903Z,19.9
2017-06-16T02:18:34.138Z,19.8
2017-06-16T02:19:33.245Z,19.8
2017-06-16T02:20:32.476Z,19.7
2017-06-16T02:21:32.107Z,19.8
2017-06-16T02:22:31.350Z,19.8
2017-06-16T02:23:30.583Z,19.8
2017-06-16T02:24:01.006Z,19.8
2017-06-16T02:24:31.542Z,19.8
2017-06-16T02:25:02.085Z,19.8
2017-06-16T02:25:32.640Z,19.8
2017-06-16T02:26:03.638Z,19.8
2017-06-16T02:27:28.033Z,19.8
2017-06-16T02:28:27.144Z,19.8
2017-06-16T02:29:26.379Z,19.8
2017-06-16T02:31:25.001Z,19.8
2017-06-16T02:32:25.316Z,19.8
2017-06-16T02:33:23.925Z,19.8
2017-06-16T02:34:23.157Z,19.8
2017-06-16T02:35:22.387Z,19.8
2017-06-16T02:36:21.386Z,19.6
2017-06-16T02:37:21.006Z,19.6
2017-06-16T02:38:20.738Z,19.6
2017-06-16T02:39:19.968Z,19.6
2017-06-16T02:40:19.198Z,19.7
2017-06-16T02:41:18.426Z,19.7
2017-06-16T02:42:17.666Z,19.6
2017-06-16T02:43:16.898Z,19.6
2017-06-16T02:45:15.907Z,19.6
2017-06-16T02:46:15.017Z,19.6
2017-06-16T02:47:14.247Z,19.6
2017-06-16T02:48:13.483Z,19.6
2017-06-16T02:49:13.222Z,19.6
2017-06-16T02:50:12.334Z,19.6
2017-06-16T02:51:11.570Z,19.5
2017-06-16T02:52:10.806Z,19.5
2017-06-16T02:53:10.547Z,19.5
2017-06-16T02:54:09.782Z,19.5
2017-06-16T02:55:09.014Z,19.5
2017-06-16T02:56:08.137Z,19.5
2017-06-16T02:57:07.011Z,19.5
2017-06-16T02:58:06.624Z,19.5
2017-06-16T02:58:37.176Z,19.5
2017-06-16T02:59:07.725Z,19.5
2017-06-16T03:00:05.330Z,19.5
2017-06-16T03:01:05.064Z,19.5
2017-06-16T03:02:04.292Z,19.5
2017-06-16T03:03:03.290Z,19.4
2017-06-16T03:04:02.907Z,19.5
2017-06-16T03:05:02.137Z,19.4
2017-06-16T03:06:01.246Z,19.5
2017-06-16T03:07:00.982Z,19.5
2017-06-16T03:08:00.102Z,19.5
2017-06-16T03:08:59.327Z,19.5
2017-06-16T03:09:58.558Z,19.5
2017-06-16T03:10:58.177Z,19.4
2017-06-16T03:12:56.642Z,19.4
2017-06-16T03:13:56.453Z,19.3
2017-06-16T03:14:55.179Z,19.3
2017-06-16T03:15:54.291Z,19.3
2017-06-16T03:16:54.026Z,19.3
2017-06-16T03:17:53.134Z,19.3
2017-06-16T03:18:52.364Z,19.3
2017-06-16T03:19:51.982Z,19.3
2017-06-16T03:20:51.223Z,19.3
2017-06-16T03:21:50.216Z,19.3
2017-06-16T03:23:49.341Z,19.3
2017-06-16T03:24:48.578Z,19.3
2017-06-16T03:25:47.764Z,19.3
2017-06-16T03:26:46.998Z,19
2017-06-16T03:27:46.231Z,19
2017-06-16T03:28:45.673Z,19.1
2017-06-16T03:29:45.036Z,19.1
2017-06-16T03:30:44.030Z,19.1
2017-06-16T03:31:43.648Z,19.1
2017-06-16T03:32:42.875Z,19.1
2017-06-16T03:34:41.757Z,19.2
2017-06-16T03:35:40.987Z,19.2
2017-06-16T03:36:40.800Z,19.2
2017-06-16T03:38:38.792Z,19.3
2017-06-16T03:39:38.410Z,19.3
2017-06-16T03:40:37.522Z,19.3
2017-06-16T03:41:36.755Z,19.3
2017-06-16T03:42:35.981Z,19.3
2017-06-16T03:43:35.712Z,19.3
2017-06-16T03:45:34.325Z,19.3
2017-06-16T03:46:33.469Z,19.3
2017-06-16T03:47:32.714Z,19.3
2017-06-16T03:48:31.951Z,19.3
2017-06-16T03:49:31.178Z,19.3
2017-06-16T03:50:30.802Z,19.2
2017-06-16T03:51:29.916Z,19.3
2017-06-16T03:52:29.724Z,19.2
2017-06-16T03:53:28.840Z,19.1
2017-06-16T03:54:27.828Z,19.1
2017-06-16T03:56:26.449Z,19.1
2017-06-16T03:57:26.185Z,19.1
2017-06-16T03:58:25.418Z,19.1
2017-06-16T03:59:24.671Z,19.1
2017-06-16T04:00:23.899Z,19.1
2017-06-16T04:01:23.137Z,19.1
2017-06-16T04:02:22.947Z,19.2
2017-06-16T04:03:21.682Z,19.2
2017-06-16T04:04:21.851Z,19.2
2017-06-16T04:05:20.652Z,19.2
2017-06-16T04:06:19.963Z,19.1
2017-06-16T04:07:19.771Z,19.1
2017-06-16T04:08:18.499Z,19.2
2017-06-16T04:09:17.723Z,19.1
2017-06-16T04:10:16.960Z,19
2017-06-16T04:11:16.186Z,19.1
2017-06-16T04:13:15.382Z,19.1
2017-06-16T04:14:14.632Z,19.1
2017-06-16T04:15:13.859Z,19.1
2017-06-16T04:16:13.089Z,19
2017-06-16T04:17:12.324Z,19
2017-06-16T04:18:11.317Z,19
2017-06-16T04:19:11.046Z,19.1
2017-06-16T04:20:10.154Z,19.1
2017-06-16T04:21:09.779Z,19.1
2017-06-16T04:22:08.894Z,19.1
2017-06-16T04:23:08.013Z,19
2017-06-16T04:24:07.647Z,19
2017-06-16T04:25:06.887Z,19
2017-06-16T04:26:06.705Z,19.1
2017-06-16T04:27:05.201Z,19.1
2017-06-16T04:28:05.270Z,19
2017-06-16T04:29:03.995Z,19
2017-06-16T04:30:02.986Z,19
2017-06-16T04:31:02.987Z,19
2017-06-16T04:32:02.222Z,19
2017-06-16T04:33:01.538Z,19
2017-06-16T04:34:00.658Z,19
2017-06-16T04:35:00.309Z,19
2017-06-16T04:36:58.812Z,19.1
2017-06-16T04:37:57.925Z,19
2017-06-16T04:38:58.317Z,19
2017-06-16T04:39:56.544Z,19
2017-06-16T04:40:56.353Z,19
2017-06-16T04:41:55.075Z,18.9
2017-06-16T04:42:54.579Z,18.8
2017-06-16T04:43:54.083Z,18.8
2017-06-16T04:44:53.267Z,18.9
2017-06-16T04:45:52.326Z,18.9
2017-06-16T04:46:52.010Z,19
2017-06-16T04:47:51.019Z,19
2017-06-16T04:48:50.250Z,18.9
2017-06-16T04:49:49.861Z,19
2017-06-16T04:50:49.173Z,19
2017-06-16T04:51:48.406Z,19
2017-06-16T04:53:47.020Z,19
2017-06-16T04:54:46.252Z,18.9
2017-06-16T04:55:45.363Z,18.9
2017-06-16T04:56:45.096Z,19
2017-06-16T04:57:44.212Z,19
2017-06-16T04:58:43.442Z,19
2017-06-16T04:59:43.170Z,19
2017-06-16T05:00:42.287Z,19
2017-06-16T05:01:41.517Z,18.9
2017-06-16T05:02:40.753Z,18.9
2017-06-16T05:03:40.370Z,18.9
2017-06-16T05:04:39.641Z,19
2017-06-16T05:05:38.760Z,19
2017-06-16T05:06:38.491Z,19
2017-06-16T05:07:38.179Z,19
2017-06-16T05:08:36.791Z,19.1
2017-06-16T05:09:36.028Z,19.1
2017-06-16T05:11:34.656Z,19
2017-06-16T05:12:34.391Z,19
2017-06-16T05:13:33.499Z,19
2017-06-16T05:14:32.731Z,19
2017-06-16T05:15:32.342Z,19
2017-06-16T05:16:31.336Z,19.1
2017-06-16T05:17:31.144Z,19.1
2017-06-16T05:18:29.868Z,19.1
2017-06-16T05:19:29.601Z,19.1
2017-06-16T05:20:28.900Z,19.1
2017-06-16T05:21:28.127Z,19.1
2017-06-16T05:22:27.361Z,19.2
2017-06-16T05:23:26.977Z,19.2
2017-06-16T05:24:25.973Z,19.2
2017-06-16T05:25:25.201Z,19.2
2017-06-16T05:27:23.824Z,19.3
2017-06-16T05:28:23.557Z,19.3
2017-06-16T05:29:22.791Z,19.3
2017-06-16T05:30:21.906Z,19.2
2017-06-16T05:31:21.131Z,19.1
2017-06-16T05:32:20.748Z,19.1
2017-06-16T05:33:20.050Z,19.1
2017-06-16T05:34:19.872Z,19.1
2017-06-16T05:35:18.482Z,19.1
2017-06-16T05:36:17.596Z,19
2017-06-16T05:37:17.340Z,19
2017-06-16T05:38:16.580Z,19.1
2017-06-16T05:39:15.703Z,19.1
2017-06-16T05:40:15.431Z,19.1
2017-06-16T05:41:14.542Z,19.1
2017-06-16T05:42:13.769Z,19.1
2017-06-16T05:43:12.996Z,19.1
2017-06-16T05:44:12.729Z,19.1
2017-06-16T05:45:11.836Z,19.1
2017-06-16T05:46:10.943Z,19.1
2017-06-16T05:47:10.685Z,19.1
2017-06-16T05:48:09.799Z,19.2
2017-06-16T05:49:08.671Z,19.2
2017-06-16T05:50:08.061Z,19.2
2017-06-16T05:51:07.675Z,19.1
2017-06-16T05:52:06.787Z,19.2
2017-06-16T05:53:06.411Z,19.2
2017-06-16T05:54:05.399Z,19.1
2017-06-16T05:55:05.597Z,19.1
2017-06-16T05:56:04.327Z,19.2
2017-06-16T05:57:03.441Z,19.1
2017-06-16T05:59:02.337Z,19.2
2017-06-16T06:00:01.638Z,19.1
2017-06-16T06:01:00.870Z,19.2
2017-06-16T06:02:00.492Z,19.2
2017-06-16T06:02:59.720Z,19.2
2017-06-16T06:03:58.961Z,19.2
2017-06-16T06:04:58.581Z,19.2
2017-06-16T06:05:58.393Z,19.2
2017-06-16T06:07:56.282Z,19.3
2017-06-16T06:08:55.396Z,19.3
2017-06-16T06:09:55.125Z,19.3
2017-06-16T06:10:54.241Z,19.3
2017-06-16T06:11:53.471Z,19.4
2017-06-16T06:12:52.967Z,19.4
2017-06-16T06:13:52.077Z,19.5
2017-06-16T06:14:51.813Z,19.5
2017-06-16T06:15:50.920Z,19.5
2017-06-16T06:16:50.148Z,19.5
2017-06-16T06:17:49.524Z,19.5
2017-06-16T06:18:49.012Z,19.5
2017-06-16T06:19:48.246Z,19.6
2017-06-16T06:20:47.488Z,19.6
2017-06-16T06:21:46.601Z,19.6
2017-06-16T06:22:46.222Z,19.6
2017-06-16T06:23:45.716Z,19.6
2017-06-16T06:24:44.831Z,19.6
2017-06-16T06:25:43.944Z,19.6
2017-06-16T06:26:43.683Z,19.6
2017-06-16T06:27:43.176Z,19.7
2017-06-16T06:28:42.413Z,19.7
2017-06-16T06:29:41.640Z,19.7
2017-06-16T06:30:40.754Z,19.7
2017-06-16T06:31:40.489Z,19.8
2017-06-16T06:32:39.642Z,19.8
2017-06-16T06:33:38.875Z,19.8
2017-06-16T06:34:38.109Z,19.8
2017-06-16T06:35:37.843Z,19.8
2017-06-16T06:36:08.389Z,19.8
2017-06-16T06:36:38.964Z,19.9
2017-06-16T06:37:36.183Z,19.9
2017-06-16T06:38:35.925Z,19.9
2017-06-16T06:39:35.162Z,19.8
2017-06-16T06:40:34.400Z,19.9
2017-06-16T06:41:34.664Z,19.8
2017-06-16T06:42:32.893Z,19.9
2017-06-16T06:44:31.400Z,19.9
2017-06-16T06:45:31.019Z,20
2017-06-16T06:46:30.251Z,20
2017-06-16T06:47:29.985Z,20
2017-06-16T06:48:29.219Z,20
2017-06-16T06:49:28.456Z,20
2017-06-16T06:50:27.573Z,20
2017-06-16T06:51:27.309Z,20
2017-06-16T06:52:26.537Z,20
2017-06-16T06:53:25.770Z,20
2017-06-16T06:54:24.881Z,20
2017-06-16T06:55:24.619Z,20
2017-06-16T06:56:23.847Z,20
2017-06-16T06:57:23.086Z,20
2017-06-16T06:58:22.337Z,20
2017-06-16T06:59:22.085Z,20
2017-06-16T07:00:21.198Z,20
2017-06-16T07:01:20.428Z,20
2017-06-16T07:02:20.509Z,19.9
2017-06-16T07:03:19.121Z,19.8
2017-06-16T07:04:18.850Z,19.9
2017-06-16T07:05:17.971Z,19.9
2017-06-16T07:06:17.588Z,20
2017-06-16T07:07:16.817Z,20
2017-06-16T07:08:16.690Z,19.9
2017-06-16T07:09:15.409Z,20
2017-06-16T07:10:15.216Z,20
2017-06-16T07:11:13.829Z,20
2017-06-16T07:12:13.631Z,20
2017-06-16T07:13:12.748Z,20
2017-06-16T07:14:11.992Z,20
2017-06-16T07:15:12.185Z,20
2017-06-16T07:16:10.804Z,20
2017-06-16T07:17:10.035Z,20
2017-06-16T07:18:09.658Z,20
2017-06-16T07:19:08.890Z,20
2017-06-16T07:20:08.006Z,20.1
2017-06-16T07:21:07.741Z,20.1
2017-06-16T07:23:06.362Z,20.1
2017-06-16T07:24:05.592Z,20.1
2017-06-16T07:25:05.916Z,20.1
2017-06-16T07:26:04.537Z,20.1
2017-06-16T07:27:03.769Z,20.1
2017-06-16T07:28:02.649Z,20.1
2017-06-16T07:29:02.148Z,20.1
2017-06-16T07:30:01.886Z,20.1
2017-06-16T07:31:01.151Z,20.1
2017-06-16T07:32:00.383Z,20.1
2017-06-16T07:33:00.124Z,20.1
2017-06-16T07:33:59.351Z,20.1
2017-06-16T07:34:58.585Z,20.1
2017-06-16T07:35:58.399Z,20
2017-06-16T07:36:57.522Z,20
2017-06-16T07:37:57.338Z,20
2017-06-16T07:38:56.074Z,20.1
2017-06-16T07:39:55.183Z,20.1
2017-06-16T07:40:54.807Z,20
2017-06-16T07:41:53.796Z,20
2017-06-16T07:42:24.722Z,20
2017-06-16T07:42:55.257Z,20
2017-06-16T07:43:25.805Z,20
2017-06-16T07:43:56.361Z,20
2017-06-16T07:44:26.901Z,20
2017-06-16T07:45:51.803Z,20
2017-06-16T07:46:51.031Z,20.1
2017-06-16T07:47:50.143Z,20.1
2017-06-16T07:48:49.765Z,20.1
2017-06-16T07:49:48.999Z,20.1
2017-06-16T07:50:48.299Z,20.1
2017-06-16T07:51:47.911Z,20.1
2017-06-16T07:52:47.024Z,20.1
2017-06-16T07:53:46.140Z,20.1
2017-06-16T07:54:45.751Z,20
2017-06-16T07:55:44.869Z,20.1
2017-06-16T07:56:44.600Z,20
2017-06-16T07:57:43.708Z,20
2017-06-16T07:58:43.436Z,20
2017-06-16T07:59:42.658Z,19.9
2017-06-16T08:00:41.882Z,19.8
2017-06-16T08:01:41.111Z,19.9
2017-06-16T08:02:41.420Z,20
2017-06-16T08:03:40.151Z,19.9
2017-06-16T08:04:39.149Z,19.9
2017-06-16T08:05:39.452Z,19.9
2017-06-16T08:06:38.767Z,19.9
2017-06-16T08:07:37.378Z,20
2017-06-16T08:08:37.115Z,19.9
2017-06-16T08:09:36.115Z,20
2017-06-16T08:10:35.354Z,20
2017-06-16T08:11:35.102Z,20
2017-06-16T08:12:34.339Z,19.9
2017-06-16T08:13:33.451Z,19.8
2017-06-16T08:14:33.187Z,19.8
2017-06-16T08:15:32.303Z,19.8
2017-06-16T08:16:31.537Z,19.9
2017-06-16T08:17:31.275Z,20
2017-06-16T08:18:30.391Z,20
2017-06-16T08:19:29.514Z,19.9
2017-06-16T08:21:28.643Z,19.9
2017-06-16T08:22:27.876Z,19.9
2017-06-16T08:23:27.120Z,19.9
2017-06-16T08:24:26.355Z,19.8
2017-06-16T08:25:25.979Z,19.9
2017-06-16T08:26:25.211Z,19.8
2017-06-16T08:28:23.827Z,19.6
2017-06-16T08:29:23.560Z,19.7
2017-06-16T08:31:22.182Z,19.7
2017-06-16T08:32:22.000Z,19.8
2017-06-16T08:33:20.492Z,19.7
2017-06-16T08:34:20.111Z,19.7
2017-06-16T08:35:19.230Z,19.7
2017-06-16T08:36:18.794Z,19.7
2017-06-16T08:37:18.028Z,19.5
2017-06-16T08:38:17.771Z,19.6
2017-06-16T08:39:17.004Z,19.5
2017-06-16T08:40:16.111Z,19.5
2017-06-16T08:41:15.341Z,19.5
2017-06-16T08:42:15.075Z,19.6
2017-06-16T08:43:14.770Z,19.5
2017-06-16T08:44:13.383Z,19.3
2017-06-16T08:45:13.114Z,19.5
2017-06-16T08:46:12.347Z,19.3
2017-06-16T08:47:11.651Z,19.2
2017-06-16T08:48:10.880Z,19.2
2017-06-16T08:49:10.500Z,19.3
2017-06-16T08:50:09.731Z,19.5
2017-06-16T08:51:09.235Z,19.4
2017-06-16T08:52:08.469Z,19.3
2017-06-16T08:53:07.695Z,19.2
2017-06-16T08:54:07.077Z,19.2
2017-06-16T08:55:06.184Z,19.4
2017-06-16T08:56:05.687Z,19.3
2017-06-16T08:57:05.418Z,19.3
2017-06-16T08:58:04.643Z,19.3
2017-06-16T08:59:03.869Z,19.3
2017-06-16T09:00:03.684Z,19.2
2017-06-16T09:01:02.991Z,19.3
2017-06-16T09:02:02.107Z,19.4
2017-06-16T09:03:01.095Z,19.5
2017-06-16T09:04:00.827Z,19.5
2017-06-16T09:05:00.128Z,19.5
2017-06-16T09:05:59.239Z,19.5
2017-06-16T09:06:58.855Z,19.5
2017-06-16T09:07:58.042Z,19.5
2017-06-16T09:08:57.155Z,19.6
2017-06-16T09:09:56.893Z,19.6
2017-06-16T09:10:55.957Z,19.5
2017-06-16T09:11:55.689Z,19.5
2017-06-16T09:12:54.682Z,19.6
2017-06-16T09:13:54.413Z,19.6
2017-06-16T09:14:53.644Z,19.6
2017-06-16T09:15:52.401Z,19.6
2017-06-16T09:16:52.141Z,19.6
2017-06-16T09:17:51.883Z,19.7
2017-06-16T09:18:50.997Z,19.8
2017-06-16T09:20:49.623Z,19.9
2017-06-16T09:21:48.857Z,19.8
2017-06-16T09:22:48.589Z,19.8
2017-06-16T09:23:48.248Z,19.8
2017-06-16T09:25:46.252Z,19.8
2017-06-16T09:27:45.027Z,19.8
2017-06-16T09:28:44.714Z,19.8
2017-06-16T09:29:43.827Z,19.7
2017-06-16T09:30:43.574Z,19.6
2017-06-16T09:31:42.684Z,19.5
2017-06-16T09:32:41.916Z,19.5
2017-06-16T09:33:41.110Z,19.5
2017-06-16T09:34:40.847Z,19.5
2017-06-16T09:35:39.722Z,19.4
2017-06-16T09:36:39.459Z,19.4
2017-06-16T09:37:39.272Z,19.3
2017-06-16T09:38:38.506Z,19.1
2017-06-16T09:40:37.132Z,19.2
2017-06-16T09:41:36.248Z,19.1
2017-06-16T09:42:35.547Z,19.1
2017-06-16T09:43:34.847Z,18.8
2017-06-16T09:44:34.582Z,18.9
2017-06-16T09:45:33.817Z,18.8
2017-06-16T09:46:33.043Z,18.8
2017-06-16T09:47:32.270Z,19
2017-06-16T09:48:31.575Z,19
2017-06-16T09:49:31.308Z,19.1
2017-06-16T09:50:30.617Z,19.1
2017-06-16T09:51:29.865Z,19.1
2017-06-16T09:52:29.094Z,19.1
2017-06-16T09:53:28.201Z,19.3
2017-06-16T09:54:27.933Z,19.4
2017-06-16T09:55:27.052Z,19.3
2017-06-16T09:56:27.364Z,19.4
2017-06-16T09:57:26.562Z,19.5
2017-06-16T09:58:25.285Z,19.5
2017-06-16T09:59:24.520Z,19.4
2017-06-16T10:00:23.756Z,19.3
2017-06-16T10:01:23.062Z,19.3
2017-06-16T10:03:22.226Z,19.1
2017-06-16T10:04:21.457Z,19.1
2017-06-16T10:05:20.448Z,19.1
2017-06-16T10:06:19.942Z,19.2
2017-06-16T10:07:19.904Z,19.3
2017-06-16T10:08:18.516Z,19.3
2017-06-16T10:09:17.752Z,19.3
2017-06-16T10:10:17.489Z,19.3
2017-06-16T10:11:16.715Z,19.3
2017-06-16T10:12:15.944Z,19.3
2017-06-16T10:13:15.180Z,19.3
2017-06-16T10:14:14.417Z,19
2017-06-16T10:15:13.962Z,18.8
2017-06-16T10:16:13.077Z,18.6
2017-06-16T10:17:12.696Z,18.8
2017-06-16T10:18:11.809Z,18.7
2017-06-16T10:19:11.543Z,18.7
2017-06-16T10:20:10.775Z,18.8
2017-06-16T10:21:09.999Z,18.8
2017-06-16T10:22:09.234Z,18.9
2017-06-16T10:23:08.470Z,19
2017-06-16T10:24:07.227Z,19.1
2017-06-16T10:25:07.339Z,19.1
2017-06-16T10:26:06.332Z,19.1
2017-06-16T10:27:05.950Z,19.1
2017-06-16T10:28:05.459Z,19.2
2017-06-16T10:29:04.687Z,19.1
2017-06-16T10:30:03.999Z,19.2
2017-06-16T10:31:03.118Z,19.3
2017-06-16T10:32:02.355Z,19.3
2017-06-16T10:33:02.090Z,19.4
2017-06-16T10:34:01.204Z,19.3
2017-06-16T10:35:00.202Z,19.3
2017-06-16T10:35:59.816Z,19.2
2017-06-16T10:36:58.805Z,19.3
2017-06-16T10:37:58.423Z,19.3
2017-06-16T10:38:57.300Z,19.3
2017-06-16T10:39:57.032Z,19.3
2017-06-16T10:40:56.273Z,19.3
2017-06-16T10:41:55.506Z,19.3
2017-06-16T10:42:54.812Z,19.4
2017-06-16T10:43:54.313Z,19.4
2017-06-16T10:44:53.543Z,19.4
2017-06-16T10:45:53.362Z,19.3
2017-06-16T10:46:52.090Z,19.3
2017-06-16T10:47:51.825Z,19.3
2017-06-16T10:48:51.052Z,19.3
2017-06-16T10:49:50.281Z,19.2
2017-06-16T10:50:49.514Z,19.1
2017-06-16T10:51:48.746Z,18.9
2017-06-16T10:52:47.744Z,18.8
2017-06-16T10:53:47.365Z,18.9
2017-06-16T10:54:46.674Z,18.8
2017-06-16T10:55:45.902Z,19
2017-06-16T10:56:45.643Z,19.1
2017-06-16T10:57:45.451Z,19.1
2017-06-16T10:58:44.188Z,19.1
2017-06-16T10:59:43.416Z,19.1
2017-06-16T11:00:42.642Z,19.2
2017-06-16T11:01:41.899Z,19.1
2017-06-16T11:02:41.014Z,19.1
2017-06-16T11:03:40.752Z,19
2017-06-16T11:04:39.869Z,19.1
2017-06-16T11:05:39.088Z,19
2017-06-16T11:06:38.816Z,19
2017-06-16T11:07:38.041Z,19.1
2017-06-16T11:08:37.265Z,19.1
2017-06-16T11:09:36.499Z,19.2
2017-06-16T11:10:35.734Z,19.3
2017-06-16T11:11:35.353Z,19.3
2017-06-16T11:12:34.577Z,19.3
2017-06-16T11:13:33.802Z,19.3
2017-06-16T11:14:32.918Z,19.4
2017-06-16T11:15:32.536Z,19.4
2017-06-16T11:16:31.767Z,19.4
2017-06-16T11:17:31.007Z,19.4
2017-06-16T11:18:30.078Z,19.4
2017-06-16T11:19:29.693Z,19.4
2017-06-16T11:20:28.926Z,19.4
2017-06-16T11:21:28.677Z,19.5
2017-06-16T11:22:27.797Z,19.5
2017-06-16T11:23:26.916Z,19.5
2017-06-16T11:24:26.232Z,19.5
2017-06-16T11:25:25.969Z,19.4
2017-06-16T11:26:25.200Z,19.5
2017-06-16T11:27:24.430Z,19.5
2017-06-16T11:28:23.663Z,19.6
2017-06-16T11:29:22.785Z,19.5
2017-06-16T11:30:22.516Z,19.5
2017-06-16T11:31:21.654Z,19.6
2017-06-16T11:32:21.278Z,19.6
2017-06-16T11:33:20.505Z,19.6
2017-06-16T11:34:19.735Z,19.7
2017-06-16T11:35:18.980Z,19.7
2017-06-16T11:36:18.716Z,19.7
2017-06-16T11:37:17.948Z,19.7
2017-06-16T11:38:17.175Z,19.7
2017-06-16T11:39:16.282Z,19.7
2017-06-16T11:40:16.012Z,19.7
2017-06-16T11:41:15.124Z,19.8
2017-06-16T11:42:14.739Z,19.8
2017-06-16T11:43:13.977Z,19.5
2017-06-16T11:44:13.209Z,19.5
2017-06-16T11:45:12.440Z,19.3
2017-06-16T11:46:12.058Z,19.4
2017-06-16T11:47:11.288Z,19.5
2017-06-16T11:48:10.550Z,19.4
2017-06-16T11:49:10.166Z,19.4
2017-06-16T11:50:09.283Z,19.4
2017-06-16T11:51:08.902Z,19.4
2017-06-16T11:52:08.024Z,19.3
2017-06-16T11:53:07.521Z,19.3
2017-06-16T11:54:06.515Z,19.2
2017-06-16T11:54:37.054Z,19.2
2017-06-16T11:55:07.244Z,19.2
2017-06-16T11:55:37.789Z,19.2
2017-06-16T11:56:08.323Z,19.2
2017-06-16T11:57:04.685Z,19.2
2017-06-16T11:58:04.300Z,19.3
2017-06-16T11:59:03.919Z,19.4
2017-06-16T12:00:03.034Z,19.5
2017-06-16T12:01:02.528Z,19.5
2017-06-16T12:02:01.766Z,19.5
2017-06-16T12:03:00.877Z,19.2
2017-06-16T12:04:00.616Z,19.4
2017-06-16T12:04:59.731Z,19.5
2017-06-16T12:05:59.225Z,19.5
2017-06-16T12:06:58.336Z,19.3
2017-06-16T12:07:57.947Z,19.5
2017-06-16T12:08:57.185Z,19.5
2017-06-16T12:09:56.301Z,19.3
2017-06-16T12:10:56.036Z,19.4
2017-06-16T12:11:55.264Z,19.3
2017-06-16T12:12:54.500Z,19.3
2017-06-16T12:13:54.243Z,19.3
2017-06-16T12:14:53.482Z,19
2017-06-16T12:15:52.598Z,19
2017-06-16T12:16:52.339Z,19.1
2017-06-16T12:17:51.512Z,19.1
2017-06-16T12:18:50.752Z,19.1
2017-06-16T12:19:50.481Z,18.8
2017-06-16T12:20:49.715Z,18.8
2017-06-16T12:21:48.952Z,19
2017-06-16T12:22:48.066Z,18.8
2017-06-16T12:23:47.564Z,18.8
2017-06-16T12:24:47.187Z,18.8
2017-06-16T12:25:46.501Z,18.6
2017-06-16T12:26:46.126Z,18.7
2017-06-16T12:27:45.243Z,18.9
2017-06-16T12:28:44.356Z,19
2017-06-16T12:29:43.971Z,18.8
2017-06-16T12:30:43.202Z,18.8
2017-06-16T12:31:42.935Z,18.8
2017-06-16T12:32:42.163Z,18.9
2017-06-16T12:33:41.280Z,19
2017-06-16T12:34:40.900Z,19
2017-06-16T12:35:40.130Z,18.6
2017-06-16T12:37:38.753Z,18.7
2017-06-16T12:39:37.877Z,18.6
2017-06-16T12:40:37.176Z,18.8
2017-06-16T12:41:36.295Z,18.8
2017-06-16T12:42:35.905Z,18.8
2017-06-16T12:44:34.291Z,18.8
2017-06-16T12:45:33.910Z,18.8
2017-06-16T12:46:33.144Z,18.8
2017-06-16T12:47:32.771Z,18.9
2017-06-16T12:48:31.760Z,18.9
2017-06-16T12:49:31.497Z,18.9
2017-06-16T12:50:31.316Z,19
2017-06-16T12:51:30.055Z,19
2017-06-16T12:52:29.298Z,18.9
2017-06-16T12:53:28.921Z,19
2017-06-16T12:54:28.160Z,19.1
2017-06-16T12:55:27.394Z,19
2017-06-16T12:56:27.137Z,18.8
2017-06-16T12:57:26.375Z,18.9
2017-06-16T12:58:25.610Z,18.7
2017-06-16T12:59:24.730Z,18.8
2017-06-16T13:00:24.460Z,18.8
2017-06-16T13:01:23.703Z,18.7
2017-06-16T13:02:22.819Z,18.5
2017-06-16T13:03:22.545Z,18.5
2017-06-16T13:04:21.546Z,18.5
2017-06-16T13:05:21.166Z,18.5
2017-06-16T13:06:20.406Z,18.3
2017-06-16T13:07:20.023Z,18.3
2017-06-16T13:09:18.647Z,18.1
2017-06-16T13:10:17.643Z,18
2017-06-16T13:11:17.397Z,18.1
2017-06-16T13:12:16.638Z,18
2017-06-16T13:13:16.376Z,18.3
2017-06-16T13:14:15.486Z,18.3
2017-06-16T13:15:14.737Z,18.3
2017-06-16T13:17:13.235Z,18.4
2017-06-16T13:18:12.970Z,18.4
2017-06-16T13:19:12.204Z,18.4
2017-06-16T13:20:11.436Z,18.5
2017-06-16T13:21:11.191Z,18.5
2017-06-16T13:22:10.421Z,18.4
2017-06-16T13:23:09.650Z,18.4
2017-06-16T13:24:08.882Z,18.4
2017-06-16T13:25:08.621Z,18.4
2017-06-16T13:26:07.847Z,18.3
2017-06-16T13:27:06.726Z,18.5
2017-06-16T13:28:06.223Z,18.3
2017-06-16T13:29:06.183Z,18.1
2017-06-16T13:31:04.698Z,18.3
2017-06-16T13:32:03.809Z,18.3
2017-06-16T13:33:03.426Z,18.4
2017-06-16T13:34:02.546Z,18.6
2017-06-16T13:35:02.297Z,18.6
2017-06-16T13:36:01.420Z,18.4
2017-06-16T13:37:00.534Z,18.4
2017-06-16T13:37:59.911Z,18.6
2017-06-16T13:38:59.522Z,18.6
2017-06-16T13:39:58.760Z,18.7
2017-06-16T13:40:58.492Z,18.8
2017-06-16T13:41:57.616Z,18.8
2017-06-16T13:42:57.233Z,18.8
2017-06-16T13:43:56.468Z,18.8
2017-06-16T13:44:55.707Z,18.8
2017-06-16T13:45:54.825Z,18.6